Time;durP1;ratioP1;P1;durP2;ratioP2;P2;SDS_P1;SDS_P2;PMS_P1;PMS_P2;Temp;Humidity;BMP_temperature;BMP_pressure;BME280_temperature;BME280_humidity;BME280_pressure;Samples;Min_cycle;Max_cycle;Signal;HPM_P1;HPM_P2
2021/01/22 00:01:20;;;;;;;137.57;65.67;;;;;;;;;;1819034;79;21609;-74
2021/01/22 00:03:46;;;;;;;130.43;65.25;;;;;;;;;;1819139;79;21125;-74
2021/01/22 00:06:12;;;;;;;133.78;65.57;;;;;;;;;;1818811;79;21098;-74
2021/01/22 00:08:38;;;;;;;135.28;63.30;;;;;;;;;;1819137;79;21133;-73
2021/01/22 00:11:04;;;;;;;139.07;62.35;;;;;;;;;;1818759;79;21549;-74
2021/01/22 00:13:31;;;;;;;102.65;50.70;;;;;;;;;;1819003;79;21133;-73
2021/01/22 00:15:57;;;;;;;116.90;55.33;;;;;;;;;;1819204;79;21593;-73
2021/01/22 00:18:23;;;;;;;110.15;51.37;;;;;;;;;;1818805;79;21118;-74
2021/01/22 00:20:49;;;;;;;108.00;53.30;;;;;;;;;;1818989;79;21131;-74
2021/01/22 00:23:15;;;;;;;89.47;41.83;;;;;;;;;;1818816;79;21121;-73
2021/01/22 00:25:41;;;;;;;105.80;49.13;;;;;;;;;;1818997;79;21105;-74
2021/01/22 00:28:07;;;;;;;115.72;54.15;;;;;;;;;;1818815;79;21149;-73
2021/01/22 00:30:34;;;;;;;122.50;55.33;;;;;;;;;;1818886;79;21145;-73
2021/01/22 00:33:00;;;;;;;117.72;54.35;;;;;;;;;;1818797;79;21105;-73
2021/01/22 00:35:26;;;;;;;125.80;61.98;;;;;;;;;;1818889;79;21165;-73
2021/01/22 00:37:52;;;;;;;117.77;58.68;;;;;;;;;;1819155;79;21129;-73
2021/01/22 00:40:18;;;;;;;133.07;63.98;;;;;;;;;;1818897;79;21105;-73
2021/01/22 00:42:44;;;;;;;123.18;57.62;;;;;;;;;;1818789;79;21141;-73
2021/01/22 00:45:11;;;;;;;126.18;61.53;;;;;;;;;;1818791;79;21592;-73
2021/01/22 00:47:37;;;;;;;130.00;61.60;;;;;;;;;;1818812;79;21172;-73
2021/01/22 00:50:04;;;;;;;123.07;59.77;;;;;;;;;;1818853;79;21132;-72
2021/01/22 00:52:30;;;;;;;148.07;66.77;;;;;;;;;;1819074;79;21141;-74
2021/01/22 00:54:56;;;;;;;141.80;66.10;;;;;;;;;;1819046;79;21144;-74
2021/01/22 00:57:22;;;;;;;132.70;63.08;;;;;;;;;;1818927;79;21149;-74
2021/01/22 00:59:48;;;;;;;131.18;61.92;;;;;;;;;;1819536;79;21131;-74
2021/01/22 01:02:14;;;;;;;130.95;62.20;;;;;;;;;;1818998;79;21601;-74
2021/01/22 01:04:41;;;;;;;129.60;61.77;;;;;;;;;;1819045;79;21113;-74
2021/01/22 01:07:07;;;;;;;131.40;62.00;;;;;;;;;;1819078;79;21157;-74
2021/01/22 01:09:34;;;;;;;123.38;60.60;;;;;;;;;;1818947;79;21608;-74
2021/01/22 01:12:00;;;;;;;109.50;54.65;;;;;;;;;;1819229;79;21133;-73
2021/01/22 01:14:26;;;;;;;117.72;58.17;;;;;;;;;;1818933;79;21113;-74
2021/01/22 01:16:52;;;;;;;113.30;53.90;;;;;;;;;;1819065;79;21117;-75
2021/01/22 01:19:19;;;;;;;118.70;56.53;;;;;;;;;;1818958;79;21562;-74
2021/01/22 01:21:45;;;;;;;126.00;61.33;;;;;;;;;;1819105;79;21109;-74
2021/01/22 01:24:11;;;;;;;108.42;52.45;;;;;;;;;;1819024;79;21533;-73
2021/01/22 01:26:37;;;;;;;117.72;58.38;;;;;;;;;;1819368;79;21133;-74
2021/01/22 01:29:03;;;;;;;118.50;55.45;;;;;;;;;;1819143;79;21126;-73
2021/01/22 01:31:29;;;;;;;132.65;62.78;;;;;;;;;;1819057;79;21559;-73
2021/01/22 01:33:55;;;;;;;121.67;56.65;;;;;;;;;;1819307;79;21113;-73
2021/01/22 01:36:21;;;;;;;126.15;58.78;;;;;;;;;;1819067;79;21557;-74
2021/01/22 01:38:47;;;;;;;128.10;60.92;;;;;;;;;;1819463;79;21133;-73
2021/01/22 01:41:13;;;;;;;128.35;58.90;;;;;;;;;;1819003;79;21560;-74
2021/01/22 01:43:40;;;;;;;124.00;59.10;;;;;;;;;;1819281;79;21149;-73
2021/01/22 01:46:06;;;;;;;130.15;59.00;;;;;;;;;;1733901;82;21156;-73
2021/01/22 01:48:32;;;;;;;123.20;60.50;;;;;;;;;;1821011;79;21149;-74
2021/01/22 01:50:58;;;;;;;118.87;58.60;;;;;;;;;;1795138;79;21113;-74
2021/01/22 01:53:25;;;;;;;125.90;60.67;;;;;;;;;;1822394;79;21191;-73
2021/01/22 01:55:51;;;;;;;113.70;54.42;;;;;;;;;;1822417;79;21565;-73
2021/01/22 01:58:17;;;;;;;107.80;53.85;;;;;;;;;;1822551;79;21440;-73
2021/01/22 02:00:43;;;;;;;115.92;56.48;;;;;;;;;;1822368;79;21691;-73
2021/01/22 02:03:09;;;;;;;114.82;57.13;;;;;;;;;;1822744;79;21133;-73
2021/01/22 02:05:35;;;;;;;114.40;53.70;;;;;;;;;;1822585;79;21754;-73
2021/01/22 02:08:02;;;;;;;118.77;53.78;;;;;;;;;;1822605;79;21109;-73
2021/01/22 02:10:28;;;;;;;106.20;53.98;;;;;;;;;;1822444;79;21153;-73
2021/01/22 02:12:54;;;;;;;109.97;52.48;;;;;;;;;;1822469;79;21518;-73
2021/01/22 02:15:20;;;;;;;116.00;53.80;;;;;;;;;;1822330;79;21136;-74
2021/01/22 02:17:46;;;;;;;96.50;48.33;;;;;;;;;;1795238;79;21188;-73
2021/01/22 02:20:14;;;;;;;108.87;52.03;;;;;;;;;;1822581;79;21137;-73
2021/01/22 02:22:41;;;;;;;101.85;48.68;;;;;;;;;;1822430;79;21573;-74
2021/01/22 02:25:10;;;;;;;114.22;52.48;;;;;;;;;;1822732;79;21121;-72
2021/01/22 02:27:36;;;;;;;107.12;53.90;;;;;;;;;;1822535;79;21133;-73
2021/01/22 02:30:05;;;;;;;104.78;50.65;;;;;;;;;;1822542;79;21677;-73
2021/01/22 02:32:32;;;;;;;96.32;45.55;;;;;;;;;;1822536;79;21276;-74
2021/01/22 02:34:58;;;;;;;92.10;47.03;;;;;;;;;;1822296;79;21604;-74
2021/01/22 02:37:24;;;;;;;86.87;41.45;;;;;;;;;;1822648;79;21129;-73
2021/01/22 02:39:51;;;;;;;92.05;45.28;;;;;;;;;;1822398;79;21548;-74
2021/01/22 02:42:17;;;;;;;87.60;42.80;;;;;;;;;;1822510;79;21133;-74
2021/01/22 02:44:43;;;;;;;92.42;44.40;;;;;;;;;;1822749;79;21125;-74
2021/01/22 02:47:10;;;;;;;94.25;44.93;;;;;;;;;;1822452;79;21129;-74
2021/01/22 02:49:36;;;;;;;80.38;39.50;;;;;;;;;;1785902;79;21141;-74
2021/01/22 02:52:03;;;;;;;82.62;40.65;;;;;;;;;;1803414;79;21255;-73
2021/01/22 02:54:29;;;;;;;79.05;38.50;;;;;;;;;;1803284;79;21101;-74
2021/01/22 02:56:57;;;;;;;88.50;41.68;;;;;;;;;;1803289;79;21132;-73
2021/01/22 02:59:25;;;;;;;83.30;37.93;;;;;;;;;;1803391;79;21556;-74
2021/01/22 03:02:09;;;;;;;77.30;38.00;;;;;;;;;;1803289;79;21129;-73
2021/01/22 03:04:36;;;;;;;83.85;43.25;;;;;;;;;;1803542;79;21109;-74
2021/01/22 03:07:02;;;;;;;84.65;42.38;;;;;;;;;;1803427;79;21097;-73
2021/01/22 03:09:29;;;;;;;84.13;41.58;;;;;;;;;;1803228;79;21102;-73
2021/01/22 03:11:55;;;;;;;85.85;43.25;;;;;;;;;;1803212;79;21136;-73
2021/01/22 03:14:21;;;;;;;78.92;40.12;;;;;;;;;;1803251;79;21591;-74
2021/01/22 03:16:48;;;;;;;80.07;39.27;;;;;;;;;;1803248;79;21342;-74
2021/01/22 03:19:14;;;;;;;80.53;41.40;;;;;;;;;;1803678;79;21106;-74
2021/01/22 03:21:40;;;;;;;73.37;39.18;;;;;;;;;;1803198;79;21134;-73
2021/01/22 03:24:07;;;;;;;79.03;38.33;;;;;;;;;;1803310;79;21172;-74
2021/01/22 03:26:33;;;;;;;85.87;39.30;;;;;;;;;;1803406;79;21132;-73
2021/01/22 03:28:59;;;;;;;77.82;37.38;;;;;;;;;;1803268;79;21172;-73
2021/01/22 03:31:25;;;;;;;82.42;38.55;;;;;;;;;;1803197;79;21128;-74
2021/01/22 03:33:52;;;;;;;71.87;34.88;;;;;;;;;;1803484;79;21098;-73
2021/01/22 03:36:18;;;;;;;65.12;28.75;;;;;;;;;;1803746;79;21549;-74
2021/01/22 03:38:44;;;;;;;69.70;32.80;;;;;;;;;;1803596;79;21125;-73
2021/01/22 03:41:10;;;;;;;76.97;36.60;;;;;;;;;;1803293;79;21556;-73
2021/01/22 03:43:36;;;;;;;79.03;37.98;;;;;;;;;;1803464;79;21121;-73
2021/01/22 03:46:02;;;;;;;84.65;40.03;;;;;;;;;;1803393;79;21126;-73
2021/01/22 03:48:29;;;;;;;71.35;33.70;;;;;;;;;;1810723;79;21144;-74
2021/01/22 03:50:55;;;;;;;85.75;39.55;;;;;;;;;;1822601;79;21106;-74
2021/01/22 03:53:21;;;;;;;71.28;37.58;;;;;;;;;;1822471;79;21141;-73
2021/01/22 03:55:47;;;;;;;84.37;39.65;;;;;;;;;;1822264;79;21243;-73
2021/01/22 03:58:13;;;;;;;80.15;38.70;;;;;;;;;;1822595;79;21129;-74
2021/01/22 04:00:39;;;;;;;70.05;32.25;;;;;;;;;;1819137;79;21108;-74
2021/01/22 04:03:06;;;;;;;64.62;32.93;;;;;;;;;;1808921;79;21133;-74
2021/01/22 04:05:32;;;;;;;59.20;28.23;;;;;;;;;;1808882;79;21120;-74
2021/01/22 04:07:59;;;;;;;73.28;35.95;;;;;;;;;;1808986;79;21113;-73
2021/01/22 04:10:25;;;;;;;79.25;39.55;;;;;;;;;;1808877;79;21568;-74
2021/01/22 04:12:51;;;;;;;76.87;36.00;;;;;;;;;;1808939;79;21129;-73
2021/01/22 04:15:17;;;;;;;76.85;37.70;;;;;;;;;;1808907;79;21722;-74
2021/01/22 04:17:44;;;;;;;70.92;35.43;;;;;;;;;;1808828;79;21141;-73
2021/01/22 04:20:10;;;;;;;62.08;31.27;;;;;;;;;;1808952;79;21132;-73
2021/01/22 04:22:37;;;;;;;72.90;33.98;;;;;;;;;;1809013;79;21128;-73
2021/01/22 04:25:03;;;;;;;62.98;30.32;;;;;;;;;;1809069;79;21176;-73
2021/01/22 04:27:30;;;;;;;69.32;34.10;;;;;;;;;;1809136;79;21141;-72
2021/01/22 04:29:56;;;;;;;63.60;29.95;;;;;;;;;;1809339;79;21133;-74
2021/01/22 04:32:22;;;;;;;58.55;31.45;;;;;;;;;;1808969;79;21165;-75
2021/01/22 04:34:48;;;;;;;66.33;31.65;;;;;;;;;;1809041;79;21136;-74
2021/01/22 04:37:14;;;;;;;61.68;32.50;;;;;;;;;;1808972;79;21132;-73
2021/01/22 04:39:41;;;;;;;55.95;27.52;;;;;;;;;;1809073;79;21560;-74
2021/01/22 04:42:07;;;;;;;53.23;27.60;;;;;;;;;;1809541;79;21125;-74
2021/01/22 04:44:34;;;;;;;52.93;23.55;;;;;;;;;;1808914;79;21152;-73
2021/01/22 04:47:01;;;;;;;55.17;26.02;;;;;;;;;;1809095;79;21093;-74
2021/01/22 04:49:27;;;;;;;43.05;22.58;;;;;;;;;;1800078;79;21106;-73
2021/01/22 04:51:53;;;;;;;52.70;25.12;;;;;;;;;;1796109;80;21182;-73
2021/01/22 04:54:24;;;;;;;52.30;27.85;;;;;;;;;;1796216;80;21097;-74
2021/01/22 04:56:51;;;;;;;44.58;22.10;;;;;;;;;;1796407;80;21102;-74
2021/01/22 04:59:21;;;;;;;31.82;15.95;;;;;;;;;;1796072;80;21153;-74
2021/01/22 05:01:47;;;;;;;30.40;16.07;;;;;;;;;;1796158;79;21129;-74
2021/01/22 05:04:13;;;;;;;38.60;18.00;;;;;;;;;;1796276;80;21133;-74
2021/01/22 05:06:39;;;;;;;42.53;21.17;;;;;;;;;;1796119;80;21560;-73
2021/01/22 05:09:05;;;;;;;42.73;22.45;;;;;;;;;;1796381;79;21299;-74
2021/01/22 05:11:31;;;;;;;44.67;25.23;;;;;;;;;;1796035;80;21141;-73
2021/01/22 05:13:58;;;;;;;55.58;25.30;;;;;;;;;;1796362;80;21168;-73
2021/01/22 05:16:24;;;;;;;63.25;29.65;;;;;;;;;;1796181;79;21569;-74
2021/01/22 05:18:50;;;;;;;53.75;24.47;;;;;;;;;;1796040;79;21113;-74
2021/01/22 05:21:19;;;;;;;52.98;26.85;;;;;;;;;;1796075;80;21139;-74
2021/01/22 05:23:44;;;;;;;55.20;25.68;;;;;;;;;;1796272;79;21223;-74
2021/01/22 05:26:11;;;;;;;61.92;28.32;;;;;;;;;;1795997;80;21573;-74
2021/01/22 05:28:38;;;;;;;52.70;26.35;;;;;;;;;;1796380;80;21142;-74
2021/01/22 05:31:06;;;;;;;58.17;28.75;;;;;;;;;;1795984;80;21106;-74
2021/01/22 05:33:33;;;;;;;58.13;28.32;;;;;;;;;;1796058;80;21133;-74
2021/01/22 05:36:18;;;;;;;51.88;27.70;;;;;;;;;;1796238;80;21569;-75
2021/01/22 05:38:44;;;;;;;52.93;29.45;;;;;;;;;;1796262;80;21106;-75
2021/01/22 05:41:10;;;;;;;58.38;29.27;;;;;;;;;;1796022;80;21137;-73
2021/01/22 05:43:37;;;;;;;58.98;29.18;;;;;;;;;;1796246;80;21145;-75
2021/01/22 05:46:04;;;;;;;49.40;27.15;;;;;;;;;;1795989;80;21532;-74
2021/01/22 05:48:30;;;;;;;62.33;27.42;;;;;;;;;;1795210;80;21141;-73
2021/01/22 05:50:58;;;;;;;56.18;28.15;;;;;;;;;;1792249;80;21164;-74
2021/01/22 05:53:24;;;;;;;58.45;29.48;;;;;;;;;;1791752;80;21113;-73
2021/01/22 05:56:09;;;;;;;58.33;30.85;;;;;;;;;;1792035;80;21553;-74
2021/01/22 05:58:36;;;;;;;59.98;27.05;;;;;;;;;;1792205;80;21133;-73
2021/01/22 06:01:04;;;;;;;53.98;26.82;;;;;;;;;;1792251;80;21566;-73
2021/01/22 06:03:30;;;;;;;52.98;27.73;;;;;;;;;;1791398;80;21138;-72
2021/01/22 06:05:56;;;;;;;56.10;26.55;;;;;;;;;;1792265;80;21264;-73
2021/01/22 06:08:22;;;;;;;55.03;27.87;;;;;;;;;;1772460;80;21137;-75
2021/01/22 06:10:49;;;;;;;47.75;24.77;;;;;;;;;;1792455;80;21126;-74
2021/01/22 06:13:15;;;;;;;44.33;25.12;;;;;;;;;;1792050;80;21141;-74
2021/01/22 06:15:41;;;;;;;47.85;23.75;;;;;;;;;;1792057;80;21122;-73
2021/01/22 06:18:08;;;;;;;52.03;24.87;;;;;;;;;;1792228;80;21259;-73
2021/01/22 06:20:36;;;;;;;53.35;27.17;;;;;;;;;;1792109;80;21581;-73
2021/01/22 06:23:06;;;;;;;49.15;25.00;;;;;;;;;;1792168;80;21710;-75
2021/01/22 06:25:33;;;;;;;51.40;26.60;;;;;;;;;;1792270;80;21267;-74
2021/01/22 06:28:01;;;;;;;48.92;24.77;;;;;;;;;;1792549;80;21193;-74
2021/01/22 06:30:28;;;;;;;49.63;24.20;;;;;;;;;;1792440;80;21535;-73
2021/01/22 06:32:54;;;;;;;47.58;21.93;;;;;;;;;;1792254;80;21552;-73
2021/01/22 06:35:21;;;;;;;40.63;21.42;;;;;;;;;;1792202;80;21141;-74
2021/01/22 06:37:48;;;;;;;47.20;22.10;;;;;;;;;;1792269;79;21506;-73
2021/01/22 06:40:14;;;;;;;42.23;21.25;;;;;;;;;;1792135;80;21149;-74
2021/01/22 06:42:40;;;;;;;45.70;22.37;;;;;;;;;;1792256;80;21260;-74
2021/01/22 06:45:07;;;;;;;41.45;22.02;;;;;;;;;;1792097;79;21128;-74
2021/01/22 06:47:33;;;;;;;46.88;22.90;;;;;;;;;;1792317;80;21553;-75
2021/01/22 06:49:59;;;;;;;43.25;24.43;;;;;;;;;;1794831;79;21149;-73
2021/01/22 06:52:26;;;;;;;45.90;22.82;;;;;;;;;;1796015;79;21187;-73
2021/01/22 06:55:00;;;;;;;44.45;22.58;;;;;;;;;;1796027;80;21133;-74
2021/01/22 06:57:26;;;;;;;70.00;34.53;;;;;;;;;;1796177;79;21134;-73
2021/01/22 06:59:52;;;;;;;66.77;33.02;;;;;;;;;;1795873;80;21093;-74
2021/01/22 07:02:34;;;;;;;58.13;28.45;;;;;;;;;;1796144;80;21554;-74
2021/01/22 07:05:01;;;;;;;59.27;29.40;;;;;;;;;;1795884;80;21177;-73
2021/01/22 07:07:50;;;;;;;57.50;29.27;;;;;;;;;;1795954;79;21581;-74
2021/01/22 07:10:16;;;;;;;58.30;27.75;;;;;;;;;;1795816;79;21113;-74
2021/01/22 07:12:45;;;;;;;58.38;28.42;;;;;;;;;;1796303;80;21121;-73
2021/01/22 07:15:21;;;;;;;52.38;26.35;;;;;;;;;;1796360;80;21133;-74
2021/01/22 07:17:48;;;;;;;51.20;25.10;;;;;;;;;;1795989;80;21159;-74
2021/01/22 07:20:14;;;;;;;57.38;28.95;;;;;;;;;;1795895;79;21145;-73
2021/01/22 07:22:53;;;;;;;59.75;29.30;;;;;;;;;;1796202;79;21102;-74
2021/01/22 07:25:39;;;;;;;46.60;25.80;;;;;;;;;;1795913;80;21129;-74
2021/01/22 07:28:13;;;;;;;55.60;26.97;;;;;;;;;;1795983;79;21148;-74
2021/01/22 07:30:40;;;;;;;51.98;27.07;;;;;;;;;;1796018;80;21531;-74
2021/01/22 07:33:26;;;;;;;63.73;29.00;;;;;;;;;;1795878;80;21148;-73
2021/01/22 07:36:11;;;;;;;58.38;27.10;;;;;;;;;;1795903;80;21138;-74
2021/01/22 07:38:38;;;;;;;62.50;27.75;;;;;;;;;;1796379;80;21271;-74
2021/01/22 07:41:05;;;;;;;54.98;28.12;;;;;;;;;;1795890;79;21126;-73
2021/01/22 07:43:31;;;;;;;52.08;26.57;;;;;;;;;;1796274;80;21129;-73
2021/01/22 07:46:07;;;;;;;58.58;28.73;;;;;;;;;;1796236;80;21121;-74
2021/01/22 07:48:34;;;;;;;60.25;27.95;;;;;;;;;;1796141;80;21189;-74
2021/01/22 07:51:03;;;;;;;53.83;27.10;;;;;;;;;;1791967;80;21712;-73
2021/01/22 07:53:29;;;;;;;54.33;27.22;;;;;;;;;;1789233;80;21594;-74
2021/01/22 07:55:55;;;;;;;56.60;29.65;;;;;;;;;;1792178;80;21138;-74
2021/01/22 07:58:22;;;;;;;57.50;30.57;;;;;;;;;;1791960;80;21121;-73
2021/01/22 08:00:50;;;;;;;64.92;29.90;;;;;;;;;;1792185;80;21129;-74
2021/01/22 08:03:16;;;;;;;59.53;29.32;;;;;;;;;;1791125;80;21098;-74
2021/01/22 08:05:42;;;;;;;60.17;28.27;;;;;;;;;;1791924;80;21133;-74
2021/01/22 08:08:16;;;;;;;50.65;26.93;;;;;;;;;;1791984;79;21291;-73
2021/01/22 08:10:43;;;;;;;54.73;27.95;;;;;;;;;;1791357;80;21130;-73
2021/01/22 08:13:10;;;;;;;48.48;27.02;;;;;;;;;;1791960;80;21573;-73
2021/01/22 08:15:37;;;;;;;49.60;26.17;;;;;;;;;;1791993;80;21259;-74
2021/01/22 08:18:06;;;;;;;46.20;24.47;;;;;;;;;;1791911;80;21256;-73
2021/01/22 08:20:33;;;;;;;48.75;24.35;;;;;;;;;;1791351;80;21263;-74
2021/01/22 08:22:59;;;;;;;45.05;25.25;;;;;;;;;;1791938;79;21307;-73
2021/01/22 08:25:35;;;;;;;25.35;13.88;;;;;;;;;;1791919;79;21145;-74
2021/01/22 08:28:03;;;;;;;36.20;17.60;;;;;;;;;;1789106;80;21141;-74
2021/01/22 08:30:29;;;;;;;29.92;17.87;;;;;;;;;;1791280;79;21239;-74
2021/01/22 08:32:56;;;;;;;33.60;17.73;;;;;;;;;;1792060;79;21263;-73
2021/01/22 08:35:23;;;;;;;32.98;17.65;;;;;;;;;;1791939;79;21134;-74
2021/01/22 08:37:49;;;;;;;30.40;16.12;;;;;;;;;;1792145;80;21315;-74
2021/01/22 08:40:16;;;;;;;25.77;15.80;;;;;;;;;;1791983;80;21106;-74
2021/01/22 08:42:44;;;;;;;31.02;18.40;;;;;;;;;;1792270;80;21288;-74
2021/01/22 08:45:10;;;;;;;33.55;18.57;;;;;;;;;;1790811;80;21090;-77
2021/01/22 08:47:42;;;;;;;34.05;16.97;;;;;;;;;;1792127;80;21142;-75
2021/01/22 08:50:11;;;;;;;31.52;17.60;;;;;;;;;;1792141;79;21176;-74
2021/01/22 08:52:38;;;;;;;30.02;18.10;;;;;;;;;;1791730;80;21173;-74
2021/01/22 08:55:06;;;;;;;21.45;10.48;;;;;;;;;;1792013;80;21294;-75
2021/01/22 08:57:32;;;;;;;32.30;18.10;;;;;;;;;;1790312;80;21137;-77
2021/01/22 08:59:59;;;;;;;32.73;17.87;;;;;;;;;;1792309;80;21134;-74
2021/01/22 09:02:34;;;;;;;31.17;17.80;;;;;;;;;;1792115;80;21572;-75
2021/01/22 09:05:05;;;;;;;28.07;16.17;;;;;;;;;;1792528;80;21161;-74
2021/01/22 09:07:31;;;;;;;30.60;17.00;;;;;;;;;;1791394;80;21264;-75
2021/01/22 09:09:58;;;;;;;34.70;18.15;;;;;;;;;;1792342;79;21514;-75
2021/01/22 09:12:28;;;;;;;32.90;18.20;;;;;;;;;;1792180;79;21284;-74
2021/01/22 09:15:07;;;;;;;27.90;17.80;;;;;;;;;;1772267;80;21122;-75
2021/01/22 09:17:41;;;;;;;29.60;17.30;;;;;;;;;;1792123;79;21126;-74
2021/01/22 09:20:18;;;;;;;29.77;17.27;;;;;;;;;;1790262;80;21102;-75
2021/01/22 09:22:50;;;;;;;32.93;15.90;;;;;;;;;;1792170;80;21162;-73
2021/01/22 09:25:31;;;;;;;;;;;;;;;;;;;;;
2021/01/22 09:27:53;;;;;;;;;;;;;;;;;;1792401;80;21122;-74
2021/01/22 09:30:22;;;;;;;27.67;15.93;;;;;;;;;;1792093;80;20412;-73
2021/01/22 09:32:49;;;;;;;27.93;16.42;;;;;;;;;;1791600;80;21126;-73
2021/01/22 09:35:20;;;;;;;30.70;17.42;;;;;;;;;;1790268;80;21589;-73
2021/01/22 09:37:46;;;;;;;27.87;15.58;;;;;;;;;;1792226;80;21117;-73
2021/01/22 09:40:12;;;;;;;28.55;17.23;;;;;;;;;;1792025;79;21102;-73
2021/01/22 09:42:39;;;;;;;27.87;16.75;;;;;;;;;;1791998;80;21284;-74
2021/01/22 09:45:06;;;;;;;26.77;16.27;;;;;;;;;;1792247;80;21129;-74
2021/01/22 09:47:32;;;;;;;26.90;16.67;;;;;;;;;;1792203;80;21157;-73
2021/01/22 09:49:58;;;;;;;30.65;16.75;;;;;;;;;;1793235;80;21145;-74
2021/01/22 09:52:24;;;;;;;28.57;16.70;;;;;;;;;;1795889;80;21588;-74
2021/01/22 09:54:50;;;;;;;28.20;16.30;;;;;;;;;;1796067;80;21129;-73
2021/01/22 09:57:17;;;;;;;26.65;16.25;;;;;;;;;;1796213;79;21141;-74
2021/01/22 09:59:43;;;;;;;27.95;17.27;;;;;;;;;;1795949;80;21611;-73
2021/01/22 10:02:09;;;;;;;29.42;17.62;;;;;;;;;;1796198;79;21150;-73
2021/01/22 10:04:35;;;;;;;33.18;18.23;;;;;;;;;;1795942;80;21129;-74
2021/01/22 10:07:02;;;;;;;27.40;18.40;;;;;;;;;;1796302;80;21129;-73
2021/01/22 10:09:28;;;;;;;29.00;18.17;;;;;;;;;;1796060;79;21140;-74
2021/01/22 10:11:55;;;;;;;31.70;18.50;;;;;;;;;;1795915;80;21095;-73
2021/01/22 10:14:21;;;;;;;28.50;18.55;;;;;;;;;;1796008;80;21132;-74
2021/01/22 10:16:47;;;;;;;31.40;19.02;;;;;;;;;;1795873;80;21141;-74
2021/01/22 10:19:13;;;;;;;33.42;19.20;;;;;;;;;;1796292;80;21379;-74
2021/01/22 10:21:39;;;;;;;27.98;18.45;;;;;;;;;;1795961;80;21573;-74
2021/01/22 10:24:06;;;;;;;28.75;19.23;;;;;;;;;;1796056;80;21129;-74
2021/01/22 10:26:32;;;;;;;26.50;18.37;;;;;;;;;;1796018;80;21140;-74
2021/01/22 10:28:58;;;;;;;28.23;17.67;;;;;;;;;;1796005;80;21165;-74
2021/01/22 10:31:24;;;;;;;29.52;20.40;;;;;;;;;;1796197;79;21314;-73
2021/01/22 10:33:50;;;;;;;31.42;20.00;;;;;;;;;;1796181;80;21149;-74
2021/01/22 10:36:16;;;;;;;27.93;19.62;;;;;;;;;;1795985;79;21580;-74
2021/01/22 10:38:43;;;;;;;28.65;19.00;;;;;;;;;;1796004;79;21129;-73
2021/01/22 10:41:10;;;;;;;29.52;19.42;;;;;;;;;;1795914;80;21114;-74
2021/01/22 10:43:36;;;;;;;27.20;20.95;;;;;;;;;;1796065;79;21114;-74
2021/01/22 10:46:02;;;;;;;30.62;20.92;;;;;;;;;;1795916;80;21121;-74
2021/01/22 10:48:29;;;;;;;28.42;21.02;;;;;;;;;;1795879;80;21161;-73
2021/01/22 10:50:55;;;;;;;29.65;20.90;;;;;;;;;;1795517;79;21209;-73
2021/01/22 10:53:22;;;;;;;28.60;21.12;;;;;;;;;;1795498;80;21130;-73
2021/01/22 10:55:48;;;;;;;28.62;21.20;;;;;;;;;;1795431;80;21137;-73
2021/01/22 10:58:14;;;;;;;27.05;20.77;;;;;;;;;;1795366;79;21140;-73
2021/01/22 11:00:40;;;;;;;31.93;21.95;;;;;;;;;;1795334;79;21106;-73
2021/01/22 11:03:06;;;;;;;24.45;19.07;;;;;;;;;;1795645;80;21172;-74
2021/01/22 11:05:32;;;;;;;24.95;20.72;;;;;;;;;;1795351;79;21545;-74
2021/01/22 11:07:59;;;;;;;28.38;21.07;;;;;;;;;;1795319;79;21129;-73
2021/01/22 11:10:25;;;;;;;26.82;21.57;;;;;;;;;;1795308;80;21129;-75
2021/01/22 11:12:52;;;;;;;27.48;21.27;;;;;;;;;;1795347;80;21117;-74
2021/01/22 11:15:18;;;;;;;27.30;21.95;;;;;;;;;;1795385;79;21106;-74
2021/01/22 11:17:44;;;;;;;25.62;20.55;;;;;;;;;;1795702;80;21145;-73
2021/01/22 11:20:11;;;;;;;25.55;20.08;;;;;;;;;;1795883;80;21117;-73
2021/01/22 11:22:37;;;;;;;26.62;21.00;;;;;;;;;;1795837;80;21140;-73
2021/01/22 11:25:04;;;;;;;23.65;20.25;;;;;;;;;;1795378;80;21557;-74
2021/01/22 11:27:30;;;;;;;24.85;19.98;;;;;;;;;;1779918;80;21114;-74
2021/01/22 11:29:57;;;;;;;24.25;19.98;;;;;;;;;;1795593;79;21117;-74
2021/01/22 11:32:23;;;;;;;23.87;19.02;;;;;;;;;;1795261;80;21555;-74
2021/01/22 11:34:49;;;;;;;23.25;18.92;;;;;;;;;;1795470;79;21157;-74
2021/01/22 11:37:16;;;;;;;24.47;18.95;;;;;;;;;;1795408;80;21122;-73
2021/01/22 11:39:42;;;;;;;23.83;18.85;;;;;;;;;;1795408;80;21137;-74
2021/01/22 11:42:09;;;;;;;24.32;17.90;;;;;;;;;;1795428;80;21557;-74
2021/01/22 11:44:35;;;;;;;23.05;17.15;;;;;;;;;;1795549;80;21125;-73
2021/01/22 11:47:01;;;;;;;25.52;17.32;;;;;;;;;;1795465;80;21576;-73
2021/01/22 11:49:28;;;;;;;22.20;15.78;;;;;;;;;;1795440;80;21133;-74
2021/01/22 11:51:54;;;;;;;24.60;16.15;;;;;;;;;;1792218;79;21106;-74
2021/01/22 11:54:20;;;;;;;22.67;16.67;;;;;;;;;;1792052;80;21755;-73
2021/01/22 11:56:47;;;;;;;21.97;16.30;;;;;;;;;;1792065;80;21146;-73
2021/01/22 11:59:13;;;;;;;19.73;15.78;;;;;;;;;;1792063;80;21153;-73
2021/01/22 12:01:39;;;;;;;23.07;16.55;;;;;;;;;;1792004;80;21164;-74
2021/01/22 12:04:05;;;;;;;22.82;15.38;;;;;;;;;;1792276;80;21130;-75
2021/01/22 12:06:32;;;;;;;22.62;15.85;;;;;;;;;;1791939;79;21258;-74
2021/01/22 12:08:58;;;;;;;25.20;16.65;;;;;;;;;;1792027;80;21561;-74
2021/01/22 12:11:24;;;;;;;23.18;15.93;;;;;;;;;;1772270;80;21102;-73
2021/01/22 12:13:50;;;;;;;20.52;15.43;;;;;;;;;;1792023;80;21767;-74
2021/01/22 12:16:17;;;;;;;25.20;16.23;;;;;;;;;;1791968;80;21176;-74
2021/01/22 12:18:43;;;;;;;21.70;15.78;;;;;;;;;;1792051;80;21688;-76
2021/01/22 12:21:10;;;;;;;21.27;14.98;;;;;;;;;;1791958;80;21211;-74
2021/01/22 12:23:36;;;;;;;21.05;15.00;;;;;;;;;;1791994;80;21260;-74
2021/01/22 12:26:03;;;;;;;23.62;14.95;;;;;;;;;;1792241;80;21137;-74
2021/01/22 12:28:29;;;;;;;25.50;15.50;;;;;;;;;;1792343;80;21565;-73
2021/01/22 12:30:55;;;;;;;24.37;15.08;;;;;;;;;;1791957;80;21114;-73
2021/01/22 12:33:21;;;;;;;24.23;15.95;;;;;;;;;;1792133;80;21154;-74
2021/01/22 12:35:49;;;;;;;26.35;15.58;;;;;;;;;;1792183;79;21117;-76
2021/01/22 12:38:18;;;;;;;21.75;15.08;;;;;;;;;;1792023;80;21719;-74
2021/01/22 12:40:44;;;;;;;24.98;16.45;;;;;;;;;;1792188;80;21280;-74
2021/01/22 12:43:10;;;;;;;24.30;14.98;;;;;;;;;;1792136;80;21125;-75
2021/01/22 12:45:36;;;;;;;26.48;15.40;;;;;;;;;;1792390;80;21244;-73
2021/01/22 12:48:04;;;;;;;27.10;16.32;;;;;;;;;;1792197;80;21166;-74
2021/01/22 12:50:30;;;;;;;26.70;16.02;;;;;;;;;;1793014;79;21133;-74
2021/01/22 12:52:57;;;;;;;26.45;15.40;;;;;;;;;;1796362;80;21263;-75
2021/01/22 12:55:23;;;;;;;25.85;17.10;;;;;;;;;;1796120;80;21604;-74
2021/01/22 12:57:49;;;;;;;35.10;17.92;;;;;;;;;;1796562;80;21295;-76
2021/01/22 13:00:20;;;;;;;26.12;16.37;;;;;;;;;;1796062;80;21122;-74
2021/01/22 13:02:44;;;;;;;32.23;16.52;;;;;;;;;;1794917;79;21600;-73
2021/01/22 13:05:15;;;;;;;30.92;18.40;;;;;;;;;;1796197;79;21137;-73
2021/01/22 13:07:39;;;;;;;31.75;16.55;;;;;;;;;;1794841;79;21561;-74
2021/01/22 13:10:06;;;;;;;26.37;15.53;;;;;;;;;;1796316;80;21264;-75
2021/01/22 13:12:32;;;;;;;29.75;17.30;;;;;;;;;;1796376;80;21544;-74
2021/01/22 13:14:59;;;;;;;31.65;19.80;;;;;;;;;;1796024;80;21117;-74
2021/01/22 13:17:25;;;;;;;33.75;17.55;;;;;;;;;;1796069;80;21145;-73
2021/01/22 13:19:51;;;;;;;29.07;17.45;;;;;;;;;;1795970;80;21126;-74
2021/01/22 13:22:17;;;;;;;24.75;15.68;;;;;;;;;;1796242;80;21356;-73
2021/01/22 13:24:43;;;;;;;27.48;17.05;;;;;;;;;;1796031;80;21561;-74
2021/01/22 13:27:10;;;;;;;29.60;17.98;;;;;;;;;;1796326;80;21156;-74
2021/01/22 13:29:36;;;;;;;29.80;17.87;;;;;;;;;;1796082;79;21623;-73
2021/01/22 13:32:02;;;;;;;33.48;18.40;;;;;;;;;;1796252;79;21125;-74
2021/01/22 13:34:28;;;;;;;36.08;19.05;;;;;;;;;;1796046;79;21109;-74
2021/01/22 13:36:54;;;;;;;34.27;19.07;;;;;;;;;;1796058;80;21168;-73
2021/01/22 13:39:20;;;;;;;35.25;20.23;;;;;;;;;;1795969;79;21153;-73
2021/01/22 13:41:46;;;;;;;37.13;21.10;;;;;;;;;;1796340;79;21315;-74
2021/01/22 13:44:13;;;;;;;38.30;21.05;;;;;;;;;;1796036;79;21101;-74
2021/01/22 13:46:40;;;;;;;32.48;19.92;;;;;;;;;;1796446;80;21128;-74
2021/01/22 13:49:06;;;;;;;38.58;21.80;;;;;;;;;;1796222;80;21310;-73
2021/01/22 13:51:32;;;;;;;39.10;21.62;;;;;;;;;;1793747;79;21164;-74
2021/01/22 13:53:58;;;;;;;34.67;20.88;;;;;;;;;;1792091;80;21141;-75
2021/01/22 13:56:25;;;;;;;36.55;21.90;;;;;;;;;;1791984;79;21253;-74
2021/01/22 13:58:51;;;;;;;35.98;20.60;;;;;;;;;;1792064;80;21125;-73
2021/01/22 14:01:17;;;;;;;36.08;21.17;;;;;;;;;;1792574;79;21129;-74
2021/01/22 14:03:43;;;;;;;29.77;17.70;;;;;;;;;;1791975;79;21723;-74
2021/01/22 14:06:09;;;;;;;36.85;19.92;;;;;;;;;;1792082;80;21730;-74
2021/01/22 14:08:37;;;;;;;34.85;20.90;;;;;;;;;;1792039;80;21094;-74
2021/01/22 14:11:03;;;;;;;44.53;22.62;;;;;;;;;;1792116;80;21129;-74
2021/01/22 14:13:29;;;;;;;41.50;22.27;;;;;;;;;;1792085;80;21276;-74
2021/01/22 14:15:55;;;;;;;39.33;22.42;;;;;;;;;;1792525;79;21142;-74